Data for 09/27/2018

Time Sea-Level Adjusted Pressure Absolute Pressure Temperature Relative Humidity Dew Point   
(mb) (inHg) (mb) (inHg) (C) (F) (%) (C) (F)
00:05 1021 30.15 851 25.13 12.9 55.1 32 -3.4 25.9
00:10 1021 30.15 851 25.13 12.9 55.2 32 -3.4 25.9
00:15 1021 30.15 851 25.13 12.9 55.2 32 -3.4 25.9
00:20 1021 30.15 851 25.13 12.9 55.2 32 -3.4 26
00:25 1021 30.15 851 25.13 12.8 55.1 32 -3.3 26.1
00:30 1021 30.15 851 25.13 12.8 55 32 -3.3 26.1
00:35 1022 30.18 851 25.13 12.8 55.1 32 -3.5 25.8
00:40 1022 30.18 851 25.13 12.8 55.1 32 -3.3 26.1
00:45 1022 30.18 851 25.13 12.7 54.9 32 -3.3 26
00:50 1022 30.18 851 25.13 12.8 55 32 -3.4 25.9
00:55 1022 30.18 851 25.13 12.8 55 32 -3.3 26
01:00 1022 30.18 851 25.13 12.7 54.8 33 -3.1 26.4
01:05 1022 30.18 851 25.13 12.6 54.6 34 -3 26.6
01:10 1022 30.18 851 25.13 12.4 54.4 34 -2.8 27
01:15 1022 30.18 851 25.13 12.3 54.2 34 -3.1 26.5
01:20 1022 30.18 851 25.13 12.4 54.3 33 -3.2 26.2
01:25 1022 30.18 851 25.13 12.4 54.4 34 -3.1 26.4
01:30 1022 30.18 851 25.13 12.4 54.4 33 -3.3 26
01:35 1022 30.18 851 25.13 12.5 54.5 33 -3.2 26.2
01:40 1021 30.15 851 25.13 12.4 54.4 34 -3 26.7
01:45 1022 30.18 851 25.13 12.3 54.1 35 -2.7 27.2
01:50 1022 30.18 851 25.13 12.1 53.8 35 -2.8 26.9
01:55 1022 30.18 851 25.13 12.1 53.7 35 -2.8 26.9
02:00 1022 30.18 851 25.13 12.1 53.7 35 -2.7 27.1
02:05 1022 30.18 851 25.13 12 53.6 36 -2.5 27.5
02:10 1021 30.15 851 25.13 11.9 53.4 36 -2.5 27.5
02:15 1021 30.15 851 25.13 11.9 53.4 37 -2.4 27.6
02:20 1021 30.15 851 25.13 11.9 53.3 37 -2.5 27.6
02:25 1021 30.15 851 25.13 11.7 53.1 37 -2.2 28
02:30 1021 30.15 851 25.13 11.7 53 40 -1.4 29.5
02:35 1021 30.15 851 25.13 11.6 52.8 39 -1.7 28.9
02:40 1021 30.15 851 25.13 11.4 52.6 40 -1.6 29
02:45 1021 30.15 851 25.13 11.4 52.4 41 -1.5 29.4
02:50 1021 30.15 851 25.13 11.3 52.3 40 -1.7 28.9
02:55 1021 30.15 851 25.13 11.3 52.3 41 -1.5 29.3
03:00 1022 30.18 851 25.13 11.3 52.3 40 -1.8 28.8
03:05 1021 30.15 851 25.13 11.3 52.3 39 -2 28.4
03:10 1021 30.15 851 25.13 11.4 52.4 39 -2.1 28.2
03:15 1021 30.15 851 25.13 11.5 52.7 38 -2.4 27.8
03:20 1021 30.15 851 25.13 11.6 52.8 38 -2.2 28
03:25 1021 30.15 851 25.13 11.4 52.6 37 -2.6 27.4
03:30 1021 30.15 851 25.13 11.6 52.9 37 -2.7 27.1
03:35 1021 30.15 851 25.13 11.5 52.8 37 -2.6 27.4
03:40 1021 30.15 851 25.13 11.5 52.6 37 -2.7 27.2
03:45 1021 30.15 851 25.13 11.5 52.7 36 -3 26.5
03:50 1021 30.15 851 25.13 11.5 52.8 36 -3 26.6
03:55 1021 30.15 851 25.13 11.6 52.8 36 -2.9 26.8
04:00 1021 30.15 851 25.13 11.5 52.8 36 -2.9 26.8
04:05 1021 30.15 851 25.13 11.5 52.8 36 -3.1 26.5
04:10 1021 30.15 851 25.13 11.6 52.8 36 -3 26.6
04:15 1021 30.15 851 25.13 11.6 53 35 -3.2 26.3
04:20 1021 30.15 851 25.13 11.8 53.2 34 -3.4 25.9
04:25 1021 30.15 851 25.13 11.8 53.2 35 -3.3 26.1
04:30 1021 30.15 851 25.13 11.7 53.1 34 -3.4 25.9
04:35 1021 30.15 851 25.13 11.8 53.2 34 -3.4 25.9
04:40 1021 30.15 851 25.13 11.8 53.2 35 -3.3 26
04:45 1021 30.15 851 25.13 11.8 53.2 34 -3.7 25.4
04:50 1021 30.15 851 25.13 11.7 53.1 34 -3.5 25.7
04:55 1021 30.15 851 25.13 11.7 53.1 35 -3.2 26.2
05:00 1021 30.15 851 25.13 11.7 53.1 33 -4.1 24.6
05:05 1021 30.15 851 25.13 11.8 53.3 33 -4 24.7
05:10 1021 30.15 851 25.13 11.9 53.4 32 -4.1 24.6
05:15 1021 30.15 850 25.1 11.9 53.4 33 -3.9 25
05:20 1021 30.15 850 25.1 11.8 53.2 34 -3.7 25.4
05:25 1021 30.15 850 25.1 11.6 52.8 34 -3.7 25.3
05:30 1021 30.15 850 25.1 11.5 52.6 33 -4.1 24.7
05:35 1021 30.15 850 25.1 11.3 52.4 34 -4.1 24.7
05:40 1021 30.15 850 25.1 11.1 52.1 34 -4.1 24.7
05:45 1021 30.15 850 25.1 11 51.8 35 -3.7 25.3
05:50 1021 30.15 850 25.1 10.7 51.3 37 -3.5 25.7
05:55 1021 30.15 850 25.1 10.6 51.1 37 -3.6 25.6
06:00 1021 30.15 850 25.1 10.6 51.1 35 -4.2 24.4
06:05 1021 30.15 850 25.1 10.6 51.1 36 -3.8 25.1
06:10 1021 30.15 850 25.1 10.5 50.9 37 -3.4 25.8
06:15 1021 30.15 850 25.1 10.4 50.7 37 -3.7 25.4
06:20 1021 30.15 850 25.1 10.6 51 36 -3.9 25
06:25 1021 30.15 850 25.1 10.7 51.3 36 -3.9 25
06:30 1021 30.15 850 25.1 10.7 51.3 36 -3.7 25.3
06:35 1021 30.15 850 25.1 10.7 51.3 39 -2.7 27.1
06:40 1021 30.15 850 25.1 10.6 51 38 -3 26.7
06:45 1021 30.15 850 25.1 10.4 50.8 41 -2.1 28.3
06:50 1021 30.15 850 25.1 10 50.1 42 -2.1 28.2
06:55 1021 30.15 850 25.1 9.7 49.4 45 -1.6 29
07:00 1021 30.15 850 25.1 9.5 49.1 45 -2 28.5
07:05 1021 30.15 851 25.13 9.6 49.3 46 -1.5 29.3
07:10 1021 30.15 851 25.13 9.8 49.6 44 -1.8 28.8
07:15 1021 30.15 851 25.13 10.1 50.1 44 -1.6 29.1
07:20 1021 30.15 851 25.13 10.2 50.4 43 -1.7 28.9
07:25 1021 30.15 850 25.1 10.4 50.7 41 -2.2 28.1
07:30 1021 30.15 850 25.1 10.7 51.3 39 -2.5 27.5
07:35 1021 30.15 850 25.1 10.9 51.5 40 -2.3 27.9
07:40 1021 30.15 850 25.1 11 51.9 39 -2.3 27.9
07:45 1021 30.15 850 25.1 11.2 52.1 40 -1.7 28.9
07:50 1021 30.15 850 25.1 11.3 52.4 39 -2.1 28.2
07:55 1021 30.15 850 25.1 11.5 52.6 39 -2 28.4
08:00 1021 30.15 850 25.1 11.6 52.8 39 -1.7 28.9
08:05 1021 30.15 850 25.1 11.7 53 40 -1.4 29.4
08:10 1021 30.15 850 25.1 11.8 53.3 40 -1.3 29.7
08:15 1021 30.15 850 25.1 12 53.5 40 -1.1 29.9
08:20 1021 30.15 850 25.1 12.1 53.7 43 0 32
08:25 1021 30.15 850 25.1 12.1 53.8 40 -1 30.2
08:30 1021 30.15 850 25.1 12.1 53.7 40 -1.2 29.9
08:35 1021 30.15 850 25.1 12.1 53.8 39 -1.3 29.7
08:40 1021 30.15 850 25.1 12.1 53.8 41 -0.5 31.1
08:45 1021 30.15 850 25.1 12 53.7 41 -0.6 30.9
08:50 1021 30.15 850 25.1 11.5 52.7 43 -0.6 31
08:55 1021 30.15 850 25.1 11 51.8 44 -0.8 30.6
09:00 1021 30.15 850 25.1 10.9 51.7 43 -1.2 29.8
09:05 1021 30.15 850 25.1 11.1 51.9 39 -2.4 27.7
09:10 1021 30.15 850 25.1 11.2 52.2 39 -2.1 28.2
09:15 1021 30.15 850 25.1 11.5 52.7 36 -3 26.7
09:20 1021 30.15 850 25.1 11.8 53.2 34 -3.5 25.7
09:25 1021 30.15 850 25.1 12 53.7 35 -2.9 26.8
09:30 1021 30.15 850 25.1 12.1 53.7 35 -2.8 27
09:35 1021 30.15 850 25.1 12.1 53.8 34 -3.3 26.1
09:40 1021 30.15 850 25.1 12.2 54 35 -2.7 27.2
09:45 1021 30.15 850 25.1 12.2 54 37 -2.1 28.2
09:50 1021 30.15 850 25.1 12.3 54.1 36 -2.4 27.7
09:55 1021 30.15 850 25.1 12.5 54.5 35 -2.4 27.7
10:00 1021 30.15 850 25.1 12.7 54.9 35 -2.3 27.8
10:05 1021 30.15 850 25.1 12.8 55 35 -2.3 27.9
10:10 1021 30.15 850 25.1 13.1 55.6 35 -1.9 28.5
10:15 1021 30.15 850 25.1 13.1 55.6 36 -1.6 29.1
10:20 1021 30.15 850 25.1 13.3 56 37 -1.1 30.1
10:25 1021 30.15 850 25.1 13.6 56.5 33 -2.2 28.1
10:30 1020 30.12 850 25.1 13.7 56.7 34 -1.9 28.5
10:35 1020 30.12 850 25.1 13.8 56.8 34 -1.8 28.8
10:40 1020 30.12 850 25.1 13.9 56.9 34 -1.6 29
10:45 1020 30.12 850 25.1 14.2 57.5 33 -1.9 28.6
10:50 1020 30.12 850 25.1 14.4 58 34 -1.3 29.7
10:55 1020 30.12 850 25.1 14.7 58.4 32 -1.7 28.9
11:00 1020 30.12 850 25.1 14.8 58.6 33 -1.1 30.1
11:05 1020 30.12 850 25.1 14.7 58.5 33 -1.1 30.1
11:10 1020 30.12 850 25.1 14.8 58.6 34 -0.8 30.5
11:15 1020 30.12 850 25.1 14.8 58.6 35 -0.4 31.4
11:20 1020 30.12 849 25.07 14.8 58.6 33 -1.1 30
11:25 1020 30.12 849 25.07 14.6 58.3 34 -0.9 30.4
11:30 1020 30.12 849 25.07 14.3 57.7 34 -1.2 29.9
11:35 1020 30.12 849 25.07 14.2 57.6 34 -1.4 29.4
11:40 1020 30.12 849 25.07 14.4 57.8 34 -1.1 30
11:45 1020 30.12 849 25.07 14.4 57.9 35 -0.9 30.3
11:50 1020 30.12 849 25.07 14.4 57.9 35 -0.6 30.9
11:55 1020 30.12 849 25.07 14.4 58 35 -0.8 30.5
12:00 1020 30.12 849 25.07 14.5 58.1 33 -1.5 29.4
12:05 1020 30.12 849 25.07 14.4 57.8 34 -1.2 29.9
12:10 1020 30.12 849 25.07 14.6 58.2 33 -1.3 29.7
12:15 1020 30.12 849 25.07 14.8 58.6 34 -0.8 30.6
12:20 1020 30.12 849 25.07 15.1 59.2 34 -0.7 30.7
12:25 1020 30.12 849 25.07 15.2 59.4 33 -0.7 30.7
12:30 1020 30.12 849 25.07 15.1 59.3 33 -1 30.1
12:35 1020 30.12 849 25.07 15.1 59.1 33 -0.9 30.4
12:40 1020 30.12 849 25.07 15 59.1 34 -0.8 30.5
12:45 1020 30.12 849 25.07 15.2 59.3 33 -0.8 30.5
12:50 1020 30.12 849 25.07 15.4 59.7 32 -1.1 30.1
12:55 1020 30.12 849 25.07 15.6 60 32 -0.9 30.3
13:00 1020 30.12 849 25.07 15.9 60.5 31 -1 30.3
13:05 1020 30.12 849 25.07 16 60.8 31 -1 30.3
13:10 1020 30.12 849 25.07 16.2 61.2 30 -1.3 29.7
13:15 1020 30.12 849 25.07 16.5 61.7 30 -0.9 30.3
13:20 1020 30.12 849 25.07 16.6 61.8 30 -0.8 30.5
13:25 1020 30.12 849 25.07 16.5 61.8 32 -0.3 31.5
13:30 1020 30.12 849 25.07 16.6 61.8 31 -0.5 31.1
13:35 1019 30.09 849 25.07 16.6 61.9 30 -0.7 30.7
13:40 1019 30.09 849 25.07 16.3 61.3 32 -0.5 31.1
13:45 1019 30.09 849 25.07 16 60.9 32 -0.6 30.9
13:50 1019 30.09 849 25.07 16.4 61.6 31 -0.8 30.6
13:55 1019 30.09 848 25.04 16.3 61.4 32 -0.3 31.5
14:00 1019 30.09 848 25.04 16.1 61 30 -1.1 30
14:05 1019 30.09 848 25.04 16.3 61.3 32 -0.1 31.7
14:10 1019 30.09 848 25.04 16.3 61.3 32 -0.5 31.1
14:15 1019 30.09 848 25.04 16.2 61.2 32 -0.4 31.4
14:20 1019 30.09 848 25.04 15.9 60.6 32 -0.7 30.8
14:25 1019 30.09 848 25.04 16 60.7 32 -0.8 30.5
14:30 1019 30.09 848 25.04 15.9 60.6 32 -0.9 30.5
14:35 1019 30.09 848 25.04 15.5 59.9 32 -0.9 30.5
14:40 1019 30.09 848 25.04 15.3 59.6 32 -1 30.2
14:45 1019 30.09 848 25.04 15.3 59.6 31 -1.4 29.4
14:50 1019 30.09 848 25.04 15.4 59.6 32 -1.2 29.8
14:55 1019 30.09 848 25.04 15.4 59.8 32 -1 30.3
15:00 1019 30.09 848 25.04 15.6 60 33 -0.4 31.3
15:05 1019 30.09 848 25.04 15.5 60 31 -1.3 29.6
15:10 1019 30.09 848 25.04 15.3 59.5 33 -1 30.2
15:15 1019 30.09 848 25.04 15.2 59.3 33 -1.1 30.1
15:20 1019 30.09 848 25.04 15.1 59.2 34 -0.6 30.9
15:25 1019 30.09 848 25.04 15.1 59.3 31 -1.6 29
15:30 1019 30.09 848 25.04 15.2 59.4 33 -0.8 30.6
15:35 1019 30.09 848 25.04 15.4 59.7 36 0.4 32.7
15:40 1019 30.09 848 25.04 15.4 59.7 32 -1.1 30
15:45 1019 30.09 848 25.04 15.4 59.6 32 -1 30.1
15:50 1019 30.09 848 25.04 15.3 59.6 33 -0.9 30.4
15:55 1019 30.09 848 25.04 15.3 59.5 33 -1 30.2
16:00 1019 30.09 848 25.04 15.4 59.8 33 -0.6 30.9
16:05 1019 30.09 848 25.04 15.4 59.7 35 0.3 32.5
16:10 1019 30.09 848 25.04 15.4 59.7 34 -0.1 31.8
16:15 1019 30.09 848 25.04 14.7 58.4 44 2.6 36.6
16:20 1019 30.09 849 25.07 12.5 54.5 49 2.2 36
16:25 1019 30.09 849 25.07 11.5 52.7 52 2 35.6
16:30 1019 30.09 849 25.07 10.9 51.7 54 2.1 35.8
16:35 1020 30.12 849 25.07 10.6 51.2 55 2 35.6
16:40 1020 30.12 849 25.07 10.4 50.7 57 2.3 36.1
16:45 1020 30.12 849 25.07 10 50 58 2.2 36
16:50 1020 30.12 849 25.07 9.7 49.4 60 2.3 36.1
16:55 1020 30.12 849 25.07 9.4 48.9 61 2.2 36
17:00 1020 30.12 849 25.07 9.1 48.4 62 2.3 36.1
17:05 1020 30.12 849 25.07 8.9 48 63 2.2 36
17:10 1020 30.12 849 25.07 8.8 47.8 64 2.4 36.3
17:15 1020 30.12 849 25.07 8.6 47.5 66 2.6 36.6
17:20 1020 30.12 849 25.07 8.5 47.2 67 2.7 36.8
17:25 1020 30.12 849 25.07 8.3 47 68 2.8 37
17:30 1020 30.12 849 25.07 8.2 46.8 68 2.8 37
17:35 1020 30.12 849 25.07 8.1 46.6 70 2.9 37.3
17:40 1020 30.12 850 25.1 7.9 46.3 71 3.1 37.5
17:45 1020 30.12 850 25.1 7.7 45.9 73 3.3 37.9
17:50 1020 30.12 850 25.1 7.3 45.2 76 3.3 38
17:55 1021 30.15 850 25.1 6.9 44.4 78 3.3 37.9
18:00 1021 30.15 850 25.1 6.4 43.5 80 3.1 37.6
18:05 1021 30.15 850 25.1 5.9 42.6 80 2.7 36.8
18:10 1021 30.15 850 25.1 5.5 42 78 2.1 35.7
18:15 1021 30.15 850 25.1 5.3 41.6 78 1.7 35.1
18:20 1021 30.15 850 25.1 5.1 41.2 78 1.6 34.8
18:25 1021 30.15 850 25.1 4.9 40.8 78 1.3 34.4
18:30 1021 30.15 850 25.1 4.7 40.5 78 1.2 34.2
18:35 1021 30.15 850 25.1 4.5 40.2 78 1 33.8
18:40 1021 30.15 850 25.1 4.5 40 77 0.8 33.5
18:45 1021 30.15 851 25.13 4.4 39.9 77 0.8 33.4
18:50 1021 30.15 851 25.13 4.3 39.8 77 0.7 33.3
18:55 1021 30.15 851 25.13 4.2 39.6 78 0.7 33.3
19:00 1022 30.18 851 25.13 4.1 39.5 78 0.6 33.2
19:05 1022 30.18 851 25.13 4.1 39.3 78 0.6 33.1
19:10 1022 30.18 851 25.13 4 39.1 78 0.4 32.8
19:15 1022 30.18 851 25.13 3.8 38.9 78 0.4 32.8
19:20 1022 30.18 851 25.13 3.8 38.8 78 0.3 32.5
19:25 1022 30.18 851 25.13 3.7 38.7 78 0.2 32.4
19:30 1022 30.18 851 25.13 3.7 38.6 78 0.3 32.5
19:35 1022 30.18 851 25.13 3.6 38.5 78 0.1 32.2
19:40 1022 30.18 851 25.13 3.5 38.2 78 0 32
19:45 1022 30.18 851 25.13 3.4 38.1 78 -0 31.9
19:50 1022 30.18 851 25.13 3.3 38 78 -0.1 31.9
19:55 1022 30.18 851 25.13 3.3 37.9 77 -0.3 31.5
20:00 1022 30.18 851 25.13 3.4 38.1 76 -0.4 31.2
20:05 1022 30.18 851 25.13 3.4 38.1 76 -0.5 31.1
20:10 1022 30.18 851 25.13 3.4 38.1 76 -0.5 31.1
20:15 1022 30.18 852 25.16 3.4 38.1 76 -0.5 31.1
20:20 1022 30.18 852 25.16 3.3 38 76 -0.6 31
20:25 1022 30.18 852 25.16 3.4 38.1 75 -0.6 31
20:30 1022 30.18 852 25.16 3.3 38 75 -0.6 30.9
20:35 1022 30.18 852 25.16 3.4 38.1 75 -0.7 30.7
20:40 1023 30.21 852 25.16 3.4 38.2 74 -0.8 30.6
20:45 1023 30.21 852 25.16 3.5 38.3 73 -0.8 30.5
20:50 1023 30.21 852 25.16 3.5 38.3 73 -0.9 30.4
20:55 1023 30.21 852 25.16 3.5 38.4 71 -1.2 29.9
21:00 1023 30.21 852 25.16 3.6 38.5 71 -1.2 29.8
21:05 1023 30.21 852 25.16 3.6 38.5 71 -1.2 29.9
21:10 1023 30.21 852 25.16 3.6 38.4 71 -1.2 29.8
21:15 1023 30.21 852 25.16 3.6 38.5 70 -1.3 29.6
21:20 1023 30.21 852 25.16 3.6 38.4 71 -1.3 29.7
21:25 1023 30.21 852 25.16 3.6 38.4 71 -1.2 29.8
21:30 1023 30.21 852 25.16 3.5 38.4 71 -1.2 29.8
21:35 1023 30.21 852 25.16 3.6 38.4 71 -1.1 30
21:40 1023 30.21 852 25.16 3.5 38.3 71 -1.2 29.9
21:45 1023 30.21 852 25.16 3.5 38.4 71 -1.2 29.8
21:50 1023 30.21 852 25.16 3.5 38.4 71 -1.3 29.7
21:55 1023 30.21 852 25.16 3.5 38.3 71 -1.3 29.7
22:00 1023 30.21 852 25.16 3.5 38.2 71 -1.3 29.7
22:05 1023 30.21 852 25.16 3.4 38.2 71 -1.3 29.7
22:10 1023 30.21 852 25.16 3.4 38.1 72 -1.2 29.8
22:15 1023 30.21 852 25.16 3.3 38 72 -1.2 29.8
22:20 1023 30.21 852 25.16 3.3 37.9 72 -1.2 29.8
22:25 1023 30.21 852 25.16 3.2 37.7 73 -1.2 29.8
22:30 1023 30.21 852 25.16 3.1 37.6 73 -1.2 29.8
22:35 1023 30.21 852 25.16 3 37.5 74 -1.2 29.9
22:40 1023 30.21 852 25.16 3 37.4 73 -1.3 29.6
22:45 1023 30.21 852 25.16 2.9 37.3 74 -1.2 29.8
22:50 1023 30.21 852 25.16 2.9 37.2 75 -1.2 29.9
22:55 1023 30.21 852 25.16 2.8 37.1 75 -1.2 29.8
23:00 1023 30.21 852 25.16 2.8 37 74 -1.3 29.6
23:05 1023 30.21 852 25.16 2.8 37.1 74 -1.3 29.6
23:10 1023 30.21 852 25.16 2.8 37 74 -1.4 29.5
23:15 1023 30.21 852 25.16 2.8 37.1 73 -1.5 29.4
23:20 1023 30.21 852 25.16 2.9 37.2 73 -1.5 29.3
23:25 1023 30.21 852 25.16 2.9 37.2 72 -1.6 29.1
23:30 1023 30.21 852 25.16 3 37.3 72 -1.7 29
23:35 1023 30.21 852 25.16 3.1 37.5 71 -1.7 28.9
23:40 1023 30.21 852 25.16 3.1 37.6 71 -1.6 29.1
23:45 1023 30.21 852 25.16 3.1 37.6 71 -1.7 29
23:50 1023 30.21 853 25.19 3.1 37.7 71 -1.6 29.1
23:55 1024 30.24 853 25.19 3.1 37.6 71 -1.6 29.1
24:00 1024 30.24 853 25.19 3.1 37.7 71 -1.7 29